createdAt,value
2018-12-01T00:00:53.843Z,124.67
2018-12-01T00:03:23.274Z,123.83
2018-12-01T00:05:52.427Z,114.40
2018-12-01T00:08:21.605Z,119.23
2018-12-01T00:10:51.338Z,107.83
2018-12-01T00:13:20.579Z,108.07
2018-12-01T00:15:49.897Z,104.93
2018-12-01T00:18:19.162Z,101.53
2018-12-01T00:20:48.308Z,100.67
2018-12-01T00:23:17.522Z,102.57
2018-12-01T00:25:46.721Z,100.60
2018-12-01T00:28:15.908Z,92.27
2018-12-01T00:30:45.236Z,100.37
2018-12-01T00:33:14.557Z,99.67
2018-12-01T00:35:43.889Z,104.87
2018-12-01T00:38:12.750Z,107.87
2018-12-01T00:40:41.919Z,115.67
2018-12-01T00:43:10.944Z,108.03
2018-12-01T00:45:40.188Z,109.00
2018-12-01T00:48:09.363Z,106.43
2018-12-01T00:50:38.570Z,97.13
2018-12-01T00:53:07.984Z,90.10
2018-12-01T00:55:37.261Z,88.73
2018-12-01T00:58:06.313Z,91.13
2018-12-01T01:00:35.653Z,82.73
2018-12-01T01:03:04.743Z,76.90
2018-12-01T01:05:33.950Z,68.63
2018-12-01T01:08:03.094Z,71.90
2018-12-01T01:10:34.750Z,72.93
2018-12-01T01:13:03.358Z,69.20
2018-12-01T01:15:32.678Z,64.53
2018-12-01T01:18:01.769Z,68.77
2018-12-01T01:20:31.008Z,65.53
2018-12-01T01:23:00.133Z,57.97
2018-12-01T01:25:29.627Z,61.73
2018-12-01T01:27:58.827Z,61.23
2018-12-01T01:30:28.169Z,59.87
2018-12-01T01:33:08.108Z,56.20
2018-12-01T01:35:37.218Z,54.83
2018-12-01T01:38:06.574Z,54.60
2018-12-01T01:40:35.705Z,49.87
2018-12-01T01:43:04.920Z,51.97
2018-12-01T01:45:34.050Z,51.43
2018-12-01T01:48:03.235Z,50.87
2018-12-01T01:50:32.854Z,50.97
2018-12-01T01:53:02.095Z,48.43
2018-12-01T01:55:31.818Z,47.73
2018-12-01T01:58:01.131Z,48.03
2018-12-01T02:00:30.257Z,47.77
2018-12-01T02:02:59.245Z,46.73
2018-12-01T02:05:28.494Z,43.60
2018-12-01T02:07:57.687Z,43.77
2018-12-01T02:10:26.866Z,43.83
2018-12-01T02:12:55.934Z,34.53
2018-12-01T02:15:25.190Z,36.10
2018-12-01T02:17:54.367Z,35.90
2018-12-01T02:20:23.562Z,46.63
2018-12-01T02:22:52.723Z,36.43
2018-12-01T02:25:22.009Z,34.63
2018-12-01T02:27:51.299Z,33.43
2018-12-01T02:30:21.044Z,38.77
2018-12-01T02:32:50.014Z,39.90
2018-12-01T02:35:20.238Z,35.67
2018-12-01T02:37:49.475Z,32.67
2018-12-01T02:40:18.636Z,29.83
2018-12-01T02:42:47.723Z,28.30
2018-12-01T02:45:27.838Z,29.30
2018-12-01T02:47:57.114Z,25.13
2018-12-01T02:50:27.142Z,25.77
2018-12-01T02:53:00.675Z,24.57
2018-12-01T02:55:30.035Z,25.50
2018-12-01T02:57:59.356Z,24.47
2018-12-01T03:00:28.403Z,25.40
2018-12-01T03:02:57.829Z,26.03
2018-12-01T03:05:27.122Z,25.00
2018-12-01T03:07:56.459Z,27.57
2018-12-01T03:10:25.586Z,30.93
2018-12-01T03:12:54.862Z,28.37
2018-12-01T03:15:24.154Z,28.30
2018-12-01T03:17:53.253Z,26.90
2018-12-01T03:20:22.214Z,27.30
2018-12-01T03:22:51.282Z,30.10
2018-12-01T03:25:23.252Z,28.00
2018-12-01T03:27:53.002Z,30.93
2018-12-01T03:30:23.679Z,37.33
2018-12-01T03:32:53.371Z,27.30
2018-12-01T03:35:23.003Z,36.20
2018-12-01T03:37:52.430Z,31.87
2018-12-01T03:40:22.055Z,29.60
2018-12-01T03:42:52.141Z,30.67
2018-12-01T03:45:21.989Z,31.80
2018-12-01T03:47:51.138Z,29.57
2018-12-01T03:50:22.427Z,29.53
2018-12-01T03:52:53.646Z,30.50
2018-12-01T03:55:33.342Z,28.27
2018-12-01T03:58:02.577Z,26.80
2018-12-01T04:00:32.862Z,30.63
2018-12-01T04:03:02.550Z,29.37
2018-12-01T04:05:31.702Z,28.07
2018-12-01T04:08:00.752Z,26.87
2018-12-01T04:10:30.022Z,28.93
2018-12-01T04:12:59.202Z,29.50
2018-12-01T04:15:28.488Z,33.30
2018-12-01T04:17:57.689Z,30.00
2018-12-01T04:20:26.984Z,33.33
2018-12-01T04:22:56.125Z,33.23
2018-12-01T04:25:25.484Z,36.47
2018-12-01T04:27:54.575Z,36.77
2018-12-01T04:30:24.672Z,35.57
2018-12-01T04:32:53.957Z,37.97
2018-12-01T04:35:23.865Z,37.43
2018-12-01T04:37:54.764Z,36.17
2018-12-01T04:40:24.112Z,41.07
2018-12-01T04:42:53.485Z,55.60
2018-12-01T04:45:23.607Z,35.50
2018-12-01T04:47:52.878Z,44.30
2018-12-01T04:50:22.406Z,45.33
2018-12-01T04:52:51.642Z,39.23
2018-12-01T04:55:21.271Z,52.53
2018-12-01T04:57:50.778Z,37.23
2018-12-01T05:00:21.247Z,38.40
2018-12-01T05:02:50.387Z,44.13
2018-12-01T05:05:21.163Z,44.40
2018-12-01T05:07:50.314Z,40.00
2018-12-01T05:10:20.488Z,45.53
2018-12-01T05:12:50.527Z,39.80
2018-12-01T05:15:19.923Z,37.50
2018-12-01T05:17:49.060Z,43.73
2018-12-01T05:20:23.093Z,34.17
2018-12-01T05:22:52.749Z,36.53
2018-12-01T05:25:22.066Z,39.10
2018-12-01T05:27:51.239Z,43.33
2018-12-01T05:30:20.458Z,44.80
2018-12-01T05:32:49.611Z,42.03
2018-12-01T05:35:20.891Z,39.60
2018-12-01T05:37:50.195Z,44.47
2018-12-01T05:40:19.339Z,40.87
2018-12-01T05:42:48.753Z,41.47
2018-12-01T05:45:25.123Z,41.33
2018-12-01T05:47:54.239Z,43.07
2018-12-01T05:50:24.144Z,48.47
2018-12-01T05:52:54.009Z,47.10
2018-12-01T05:55:23.280Z,49.13
2018-12-01T05:57:52.610Z,46.50
2018-12-01T06:00:22.229Z,46.20
2018-12-01T06:02:51.466Z,46.77
2018-12-01T06:05:20.521Z,45.47
2018-12-01T06:07:49.921Z,45.83
2018-12-01T06:10:19.920Z,48.33
2018-12-01T06:12:49.848Z,46.10
2018-12-01T06:15:19.117Z,46.37
2018-12-01T06:17:48.402Z,65.28
2018-12-01T06:20:18.918Z,52.63
2018-12-01T06:22:48.070Z,56.70
2018-12-01T06:25:19.587Z,54.37
2018-12-01T06:27:48.915Z,56.43
2018-12-01T06:30:19.550Z,55.80
2018-12-01T06:32:49.644Z,54.90
2018-12-01T06:35:18.657Z,50.40
2018-12-01T06:37:47.931Z,47.37
2018-12-01T06:40:17.815Z,55.17
2018-12-01T06:42:46.967Z,54.27
2018-12-01T06:45:16.482Z,51.97
2018-12-01T06:47:45.519Z,52.17
2018-12-01T06:50:24.375Z,53.43
2018-12-01T06:52:54.063Z,54.67
2018-12-01T06:55:24.498Z,52.50
2018-12-01T06:57:54.066Z,46.73
2018-12-01T07:00:25.654Z,55.97
2018-12-01T07:02:56.227Z,52.63
2018-12-01T07:05:25.447Z,51.97
2018-12-01T07:07:54.638Z,48.50
2018-12-01T07:10:24.214Z,54.57
2018-12-01T07:13:01.418Z,56.77
2018-12-01T07:15:33.571Z,62.60
2018-12-01T07:18:07.323Z,75.27
2018-12-01T07:20:36.517Z,64.67
2018-12-01T07:23:05.673Z,63.47
2018-12-01T07:25:35.154Z,67.87
2018-12-01T07:28:04.422Z,65.33
2018-12-01T07:30:33.553Z,66.93
2018-12-01T07:33:02.895Z,75.23
2018-12-01T07:35:32.032Z,78.70
2018-12-01T07:38:01.549Z,76.63
2018-12-01T07:40:31.282Z,84.73
2018-12-01T07:43:00.594Z,97.00
2018-12-01T07:45:29.879Z,121.43
2018-12-01T07:47:59.245Z,140.53
2018-12-01T07:50:28.343Z,148.13
2018-12-01T07:52:57.594Z,141.90
2018-12-01T07:55:26.886Z,138.80
2018-12-01T07:57:56.379Z,142.00
2018-12-01T08:00:25.769Z,143.03
2018-12-01T08:02:55.060Z,144.13
2018-12-01T08:05:24.195Z,176.50
2018-12-01T08:07:53.394Z,183.60
2018-12-01T08:10:22.831Z,172.20
2018-12-01T08:12:52.083Z,161.17
2018-12-01T08:15:21.338Z,150.33
2018-12-01T08:17:50.488Z,151.90
2018-12-01T08:20:19.719Z,158.67
2018-12-01T08:22:49.046Z,153.57
2018-12-01T08:25:19.943Z,140.13
2018-12-01T08:27:51.641Z,141.63
2018-12-01T08:30:23.666Z,164.43
2018-12-01T08:32:52.939Z,181.57
2018-12-01T08:35:22.134Z,175.13
2018-12-01T08:37:51.149Z,166.27
2018-12-01T08:40:21.607Z,169.40
2018-12-01T08:42:51.319Z,192.10
2018-12-01T08:45:20.404Z,180.80
2018-12-01T08:47:49.779Z,144.20
2018-12-01T08:50:21.843Z,132.70
2018-12-01T08:52:51.371Z,101.57
2018-12-01T08:55:22.482Z,122.47
2018-12-01T08:57:52.863Z,142.33
2018-12-01T09:00:23.673Z,171.33
2018-12-01T09:03:25.341Z,147.40
2018-12-01T09:05:54.695Z,162.07
2018-12-01T09:08:23.898Z,177.33
2018-12-01T09:10:53.026Z,188.00
2018-12-01T09:13:22.304Z,226.90
2018-12-01T09:15:51.559Z,156.13
2018-12-01T09:18:20.989Z,144.73
2018-12-01T09:20:50.258Z,141.73
2018-12-01T09:23:19.501Z,178.10
2018-12-01T09:25:48.801Z,187.47
2018-12-01T09:28:18.159Z,169.03
2018-12-01T09:30:47.203Z,157.33
2018-12-01T09:33:16.727Z,176.27
2018-12-01T09:35:46.140Z,146.83
2018-12-01T09:38:15.519Z,132.67
2018-12-01T09:40:44.823Z,131.27
2018-12-01T09:43:14.151Z,156.73
2018-12-01T09:45:43.353Z,148.30
2018-12-01T09:48:12.599Z,141.60
2018-12-01T09:50:41.794Z,129.73
2018-12-01T09:53:11.589Z,118.70
2018-12-01T09:55:40.617Z,80.23
2018-12-01T09:58:09.612Z,112.13
2018-12-01T10:00:39.229Z,135.73
2018-12-01T10:03:09.736Z,135.13
2018-12-01T10:05:38.832Z,142.97
2018-12-01T10:08:08.011Z,142.70
2018-12-01T10:10:37.359Z,135.43
2018-12-01T10:13:06.803Z,127.00
2018-12-01T10:15:36.786Z,207.07
2018-12-01T10:18:07.716Z,164.43
2018-12-01T10:20:37.072Z,136.27
2018-12-01T10:23:09.322Z,114.90
2018-12-01T10:25:38.596Z,151.93
2018-12-01T10:28:08.696Z,99.53
2018-12-01T10:30:38.243Z,102.93
2018-12-01T10:33:07.671Z,100.27
2018-12-01T10:35:37.213Z,95.70
2018-12-01T10:38:15.026Z,97.40
2018-12-01T10:40:44.316Z,113.53
2018-12-01T10:43:13.731Z,103.00
2018-12-01T10:45:42.975Z,103.50
2018-12-01T10:48:12.201Z,87.20
2018-12-01T10:50:41.326Z,95.70
2018-12-01T10:53:10.941Z,97.73
2018-12-01T10:55:40.620Z,95.07
2018-12-01T10:58:12.763Z,90.33
2018-12-01T11:00:48.455Z,96.30
2018-12-01T11:03:22.772Z,89.00
2018-12-01T11:05:52.255Z,95.27
2018-12-01T11:08:21.472Z,102.57
2018-12-01T11:10:55.223Z,104.87
2018-12-01T11:13:20.338Z,115.27
2018-12-01T11:15:49.659Z,167.40
2018-12-01T11:18:19.103Z,100.40
2018-12-01T11:20:48.323Z,113.13
2018-12-01T11:23:17.530Z,146.50
2018-12-01T11:25:47.160Z,154.17
2018-12-01T11:28:16.215Z,186.00
2018-12-01T11:30:45.612Z,186.93
2018-12-01T11:33:14.852Z,174.13
2018-12-01T11:35:44.453Z,123.43
2018-12-01T11:38:14.163Z,74.33
2018-12-01T11:40:43.416Z,32.77
2018-12-01T11:43:12.874Z,39.03
2018-12-01T11:45:42.249Z,34.73
2018-12-01T11:48:11.597Z,22.57
2018-12-01T11:50:41.003Z,21.77
2018-12-01T11:53:10.883Z,39.27
2018-12-01T11:55:40.152Z,28.03
2018-12-01T11:58:09.231Z,22.20
2018-12-01T12:00:38.651Z,19.37
2018-12-01T12:03:08.222Z,19.70
2018-12-01T12:05:37.624Z,18.53
2018-12-01T12:08:26.426Z,17.17
2018-12-01T12:10:55.660Z,16.77
2018-12-01T12:13:25.772Z,17.90
2018-12-01T12:15:54.979Z,21.40
2018-12-01T12:18:24.440Z,17.13
2018-12-01T12:20:53.778Z,17.57
2018-12-01T12:23:23.128Z,19.70
2018-12-01T12:25:52.328Z,20.40
2018-12-01T12:28:21.498Z,22.60
2018-12-01T12:30:51.066Z,21.73
2018-12-01T12:33:20.184Z,18.47
2018-12-01T12:35:49.726Z,16.40
2018-12-01T12:38:19.072Z,10.20
2018-12-01T12:40:48.189Z,16.90
2018-12-01T12:43:17.500Z,17.40
2018-12-01T12:45:46.816Z,15.50
2018-12-01T12:48:16.142Z,24.90
2018-12-01T12:50:45.495Z,21.93
2018-12-01T12:53:16.030Z,21.33
2018-12-01T12:55:45.754Z,18.10
2018-12-01T12:58:15.128Z,17.63
2018-12-01T13:00:44.648Z,18.40
2018-12-01T13:03:14.228Z,18.73
2018-12-01T13:05:44.467Z,38.27
2018-12-01T13:08:16.835Z,23.90
2018-12-01T13:10:46.135Z,18.43
2018-12-01T13:13:15.448Z,33.87
2018-12-01T13:15:44.963Z,22.83
2018-12-01T13:18:15.099Z,66.03
2018-12-01T13:20:45.536Z,33.17
2018-12-01T13:23:14.849Z,30.37
2018-12-01T13:25:44.489Z,28.37
2018-12-01T13:28:19.281Z,25.87
2018-12-01T13:30:54.987Z,25.00
2018-12-01T13:33:24.331Z,22.17
2018-12-01T13:35:53.371Z,24.40
2018-12-01T13:38:22.725Z,22.80
2018-12-01T13:40:52.971Z,24.47
2018-12-01T13:43:22.443Z,65.77
2018-12-01T13:45:51.687Z,27.60
2018-12-01T13:48:21.186Z,29.57
2018-12-01T13:50:50.961Z,33.43
2018-12-01T13:53:20.303Z,25.10
2018-12-01T13:55:50.526Z,25.27
2018-12-01T13:58:19.795Z,24.53
2018-12-01T14:00:49.134Z,24.27
2018-12-01T14:03:19.535Z,25.23
2018-12-01T14:05:49.746Z,29.80
2018-12-01T14:08:19.503Z,27.37
2018-12-01T14:10:50.266Z,41.67
2018-12-01T14:13:19.728Z,39.77
2018-12-01T14:15:48.824Z,29.50
2018-12-01T14:18:18.250Z,81.87
2018-12-01T14:20:47.718Z,37.70
2018-12-01T14:23:17.721Z,34.60
2018-12-01T14:25:47.868Z,31.50
2018-12-01T14:28:16.938Z,30.27
2018-12-01T14:30:46.661Z,35.23
2018-12-01T14:33:16.407Z,34.33
2018-12-01T14:35:45.031Z,29.63
2018-12-01T14:38:16.398Z,48.60
2018-12-01T14:40:49.332Z,81.87
2018-12-01T14:43:18.827Z,44.30
2018-12-01T14:45:49.046Z,39.87
2018-12-01T14:48:18.464Z,39.37
2018-12-01T14:50:48.760Z,42.13
2018-12-01T14:53:17.626Z,30.83
2018-12-01T14:55:47.112Z,33.57
2018-12-01T14:58:16.607Z,35.20
2018-12-01T15:00:45.884Z,34.73
2018-12-01T15:03:15.500Z,35.80
2018-12-01T15:05:44.687Z,35.60
2018-12-01T15:08:14.493Z,50.97
2018-12-01T15:10:43.803Z,45.90
2018-12-01T15:13:13.790Z,34.07
2018-12-01T15:15:42.993Z,35.80
2018-12-01T15:18:12.542Z,43.07
2018-12-01T15:20:41.765Z,47.93
2018-12-01T15:23:10.921Z,47.13
2018-12-01T15:25:40.198Z,80.90
2018-12-01T15:28:10.130Z,56.73
2018-12-01T15:30:39.706Z,53.10
2018-12-01T15:33:14.167Z,62.90
2018-12-01T15:35:44.179Z,59.77
2018-12-01T15:38:14.345Z,57.67
2018-12-01T15:40:44.873Z,45.27
2018-12-01T15:43:14.447Z,41.50
2018-12-01T15:45:43.994Z,35.23
2018-12-01T15:48:13.425Z,36.80
2018-12-01T15:50:42.596Z,35.00
2018-12-01T15:53:14.872Z,33.47
2018-12-01T15:55:44.441Z,35.40
2018-12-01T15:58:13.590Z,37.40
2018-12-01T16:00:44.444Z,35.47
2018-12-01T16:03:13.988Z,63.43
2018-12-01T16:05:43.141Z,70.87
2018-12-01T16:08:12.833Z,51.03
2018-12-01T16:10:42.592Z,38.73
2018-12-01T16:13:15.845Z,45.13
2018-12-01T16:15:47.949Z,51.00
2018-12-01T16:18:17.035Z,49.77
2018-12-01T16:20:46.642Z,56.03
2018-12-01T16:23:16.162Z,44.33
2018-12-01T16:25:46.431Z,34.90
2018-12-01T16:28:16.183Z,47.37
2018-12-01T16:30:45.844Z,56.73
2018-12-01T16:33:17.232Z,58.87
2018-12-01T16:35:46.999Z,104.33
2018-12-01T16:38:18.062Z,126.57
2018-12-01T16:40:51.537Z,77.83
2018-12-01T16:43:20.834Z,71.50
2018-12-01T16:45:51.171Z,57.40
2018-12-01T16:48:20.534Z,41.23
2018-12-01T16:50:49.898Z,101.17
2018-12-01T16:53:20.303Z,103.53
2018-12-01T16:55:49.647Z,69.67
2018-12-01T16:58:19.686Z,108.30
2018-12-01T17:00:48.946Z,91.00
2018-12-01T17:03:18.598Z,57.87
2018-12-01T17:05:50.420Z,108.27
2018-12-01T17:08:19.795Z,51.70
2018-12-01T17:10:49.009Z,38.93
2018-12-01T17:13:18.183Z,50.53
2018-12-01T17:15:47.539Z,61.70
2018-12-01T17:18:16.760Z,145.70
2018-12-01T17:20:45.714Z,116.90
2018-12-01T17:23:17.198Z,110.33
2018-12-01T17:25:46.357Z,105.30
2018-12-01T17:28:17.069Z,61.27
2018-12-01T17:30:46.277Z,86.17
2018-12-01T17:33:15.421Z,81.73
2018-12-01T17:35:44.702Z,134.43
2018-12-01T17:38:15.303Z,140.53
2018-12-01T17:41:24.387Z,91.17
2018-12-01T17:44:01.289Z,72.53
2018-12-01T17:46:30.660Z,36.10
2018-12-01T17:48:59.751Z,44.03
2018-12-01T17:51:29.492Z,49.70
2018-12-01T17:54:03.086Z,52.00
2018-12-01T17:56:32.622Z,60.17
2018-12-01T17:59:02.210Z,51.67
2018-12-01T18:01:31.941Z,68.90
2018-12-01T18:04:01.467Z,63.00
2018-12-01T18:06:31.050Z,45.63
2018-12-01T18:09:00.852Z,70.47
2018-12-01T18:11:30.262Z,57.00
2018-12-01T18:13:59.944Z,46.60
2018-12-01T18:16:29.701Z,69.17
2018-12-01T18:18:59.142Z,51.13
2018-12-01T18:21:28.626Z,38.23
2018-12-01T18:23:57.987Z,33.97
2018-12-01T18:26:27.420Z,77.90
2018-12-01T18:28:57.409Z,61.27
2018-12-01T18:31:27.635Z,49.47
2018-12-01T18:34:02.946Z,49.23
2018-12-01T18:36:32.179Z,78.37
2018-12-01T18:39:01.313Z,84.67
2018-12-01T18:41:31.404Z,49.77
2018-12-01T18:44:00.683Z,58.53
2018-12-01T18:46:30.259Z,52.43
2018-12-01T18:49:00.143Z,67.27
2018-12-01T18:51:29.322Z,43.30
2018-12-01T18:53:58.707Z,39.30
2018-12-01T18:56:28.085Z,36.60
2018-12-01T18:58:57.909Z,34.50
2018-12-01T19:01:27.217Z,40.07
2018-12-01T19:03:56.621Z,37.23
2018-12-01T19:06:25.817Z,49.83
2018-12-01T19:08:55.640Z,42.00
2018-12-01T19:11:25.537Z,36.33
2018-12-01T19:13:55.143Z,39.20
2018-12-01T19:16:24.269Z,39.87
2018-12-01T19:18:54.078Z,36.73
2018-12-01T19:21:23.427Z,35.60
2018-12-01T19:23:52.785Z,32.77
2018-12-01T19:26:22.597Z,32.77
2018-12-01T19:28:52.289Z,35.10
2018-12-01T19:31:22.300Z,31.17
2018-12-01T19:33:51.639Z,38.23
2018-12-01T19:36:20.873Z,38.17
2018-12-01T19:38:50.147Z,36.77
2018-12-01T19:41:19.518Z,46.80
2018-12-01T19:43:48.951Z,38.30
2018-12-01T19:46:19.343Z,34.47
2018-12-01T19:48:48.841Z,34.90
2018-12-01T19:51:17.969Z,42.37
2018-12-01T19:53:47.613Z,63.70
2018-12-01T19:56:16.893Z,53.57
2018-12-01T19:58:46.155Z,44.30
2018-12-01T20:01:16.055Z,51.10
2018-12-01T20:03:45.131Z,76.30
2018-12-01T20:06:14.864Z,57.70
2018-12-01T20:08:44.724Z,54.27
2018-12-01T20:11:14.240Z,68.27
2018-12-01T20:13:46.575Z,43.37
2018-12-01T20:16:37.505Z,47.07
2018-12-01T20:19:07.702Z,44.53
2018-12-01T20:21:37.031Z,38.87
2018-12-01T20:24:07.413Z,39.60
2018-12-01T20:26:37.038Z,66.53
2018-12-01T20:29:06.919Z,56.37
2018-12-01T20:31:36.680Z,50.30
2018-12-01T20:34:07.483Z,47.67
2018-12-01T20:36:41.965Z,42.90
2018-12-01T20:39:23.397Z,39.37
2018-12-01T20:41:52.705Z,37.60
2018-12-01T20:44:22.394Z,35.70
2018-12-01T20:46:52.064Z,38.80
2018-12-01T20:49:21.252Z,42.90
2018-12-01T20:51:50.530Z,61.47
2018-12-01T20:54:30.235Z,94.70
2018-12-01T20:57:04.370Z,53.47
2018-12-01T20:59:33.752Z,72.97
2018-12-01T21:02:03.520Z,44.30
2018-12-01T21:04:33.448Z,64.97
2018-12-01T21:07:03.205Z,85.77
2018-12-01T21:09:32.491Z,65.37
2018-12-01T21:12:02.227Z,64.40
2018-12-01T21:14:32.573Z,69.10
2018-12-01T21:17:01.785Z,59.07
2018-12-01T21:19:31.014Z,67.90
2018-12-01T21:22:00.325Z,35.40
2018-12-01T21:24:29.776Z,36.63
2018-12-01T21:26:59.309Z,35.37
2018-12-01T21:29:28.785Z,34.50
2018-12-01T21:31:58.036Z,35.00
2018-12-01T21:34:27.591Z,37.70
2018-12-01T21:36:57.760Z,34.90
2018-12-01T21:39:27.420Z,37.00
2018-12-01T21:41:56.552Z,57.33
2018-12-01T21:44:25.874Z,56.23
2018-12-01T21:46:56.277Z,45.63
2018-12-01T21:49:25.708Z,75.37
2018-12-01T21:51:55.384Z,45.27
2018-12-01T21:54:24.547Z,45.43
2018-12-01T21:56:53.949Z,70.33
2018-12-01T21:59:23.723Z,52.50
2018-12-01T22:01:52.990Z,37.17
2018-12-01T22:04:22.356Z,53.00
2018-12-01T22:06:51.771Z,46.37
2018-12-01T22:09:21.093Z,34.57
2018-12-01T22:11:50.705Z,33.70
2018-12-01T22:14:19.949Z,34.77
2018-12-01T22:16:50.621Z,36.10
2018-12-01T22:19:19.984Z,38.27
2018-12-01T22:21:49.438Z,62.70
2018-12-01T22:24:18.992Z,64.73
2018-12-01T22:26:48.609Z,57.93
2018-12-01T22:29:18.185Z,63.20
2018-12-01T22:31:47.408Z,72.73
2018-12-01T22:34:17.391Z,99.23
2018-12-01T22:36:46.484Z,49.50
2018-12-01T22:39:15.890Z,52.33
2018-12-01T22:41:45.136Z,52.53
2018-12-01T22:44:14.583Z,65.77
2018-12-01T22:46:43.934Z,56.23
2018-12-01T22:49:13.209Z,49.87
2018-12-01T22:51:42.666Z,89.67
2018-12-01T22:54:14.033Z,97.37
2018-12-01T22:56:44.157Z,109.03
2018-12-01T22:59:13.599Z,105.17
2018-12-01T23:01:43.253Z,101.57
2018-12-01T23:04:12.516Z,104.07
2018-12-01T23:06:42.079Z,89.37
2018-12-01T23:09:11.583Z,96.90
2018-12-01T23:11:40.850Z,95.30
2018-12-01T23:14:10.191Z,87.23
2018-12-01T23:16:39.348Z,87.50
2018-12-01T23:19:08.412Z,79.97
2018-12-01T23:21:37.656Z,80.77
2018-12-01T23:24:07.032Z,106.77
2018-12-01T23:26:36.212Z,128.33
2018-12-01T23:29:05.741Z,109.07
2018-12-01T23:31:34.918Z,90.93
2018-12-01T23:34:04.917Z,91.63
2018-12-01T23:36:39.552Z,102.60
2018-12-01T23:39:08.902Z,80.53
2018-12-01T23:41:38.143Z,105.07
2018-12-01T23:44:09.391Z,134.83
2018-12-01T23:46:38.587Z,142.50
2018-12-01T23:49:07.744Z,121.07
2018-12-01T23:51:37.001Z,121.93
2018-12-01T23:54:06.207Z,132.63
2018-12-01T23:56:35.366Z,141.30
2018-12-01T23:59:04.545Z,146.57
